Time;durP1;ratioP1;P1;durP2;ratioP2;P2;SDS_P1;SDS_P2;PMS_P1;PMS_P2;Temp;Humidity;BMP_temperature;BMP_pressure;BME280_temperature;BME280_humidity;BME280_pressure;Samples;Min_cycle;Max_cycle;Signal;HPM_P1;HPM_P2
2022/12/09 00:01:57;;;;;;;16.37;10.77;;;3.10;99.90;;;;;;5073621;28;20200;-67
2022/12/09 00:04:23;;;;;;;10.70;9.90;;;3.10;99.90;;;;;;5073916;28;20175;-67
2022/12/09 00:06:48;;;;;;;10.70;9.83;;;3.10;99.90;;;;;;5073278;28;20239;-68
2022/12/09 00:09:14;;;;;;;12.53;11.20;;;3.10;99.90;;;;;;5073203;28;20194;-68
2022/12/09 00:11:41;;;;;;;12.20;11.07;;;3.10;99.90;;;;;;5073177;28;20179;-67
2022/12/09 00:14:08;;;;;;;14.53;10.67;;;3.10;99.90;;;;;;5073363;28;20173;-67
2022/12/09 00:16:33;;;;;;;12.17;11.07;;;3.10;99.90;;;;;;5072874;28;20674;-67
2022/12/09 00:18:59;;;;;;;16.43;10.37;;;3.10;99.90;;;;;;5073003;28;20249;-67
2022/12/09 00:21:31;;;;;;;12.67;11.43;;;3.20;99.90;;;;;;5072887;28;20178;-68
2022/12/09 00:23:59;;;;;;;11.43;10.27;;;3.20;99.90;;;;;;5073237;28;20504;-67
2022/12/09 00:26:25;;;;;;;11.50;10.40;;;3.20;99.90;;;;;;5072796;28;20609;-67
2022/12/09 00:28:52;;;;;;;12.93;11.13;;;3.10;99.90;;;;;;5072996;28;20198;-68
2022/12/09 00:31:23;;;;;;;10.93;10.03;;;3.10;99.90;;;;;;5072775;28;20178;-67
2022/12/09 00:33:49;;;;;;;14.17;10.43;;;3.10;99.90;;;;;;5073148;28;20491;-67
2022/12/09 00:36:18;;;;;;;10.43;9.43;;;3.00;99.90;;;;;;5072694;28;20713;-67
2022/12/09 00:38:44;;;;;;;11.07;10.17;;;3.00;99.90;;;;;;5073081;28;20275;-67
2022/12/09 00:41:11;;;;;;;9.70;8.93;;;3.00;99.90;;;;;;5072569;28;20654;-67
2022/12/09 00:43:36;;;;;;;11.30;9.80;;;3.00;99.90;;;;;;5072473;28;20468;-67
2022/12/09 00:46:03;;;;;;;12.17;9.70;;;3.00;99.90;;;;;;5072548;28;20630;-68
2022/12/09 00:48:29;;;;;;;10.97;9.97;;;3.00;99.90;;;;;;5072578;28;20209;-67
2022/12/09 00:50:55;;;;;;;9.60;8.80;;;3.00;99.90;;;;;;5072084;28;20174;-67
2022/12/09 00:53:21;;;;;;;9.90;9.00;;;3.00;99.90;;;;;;5072716;28;20182;-67
2022/12/09 00:55:47;;;;;;;10.10;9.00;;;3.00;99.90;;;;;;5072225;28;20185;-67
2022/12/09 00:58:13;;;;;;;10.30;9.40;;;3.00;99.90;;;;;;5072382;28;20205;-67
2022/12/09 01:00:39;;;;;;;10.90;9.63;;;3.00;99.90;;;;;;5052952;28;20605;-68
2022/12/09 01:03:04;;;;;;;14.93;8.93;;;3.00;99.90;;;;;;5072478;28;20185;-67
2022/12/09 01:05:30;;;;;;;12.30;8.90;;;3.00;99.90;;;;;;5072837;28;20532;-67
2022/12/09 01:07:56;;;;;;;9.77;8.80;;;3.00;99.90;;;;;;5073188;28;20200;-67
2022/12/09 01:10:21;;;;;;;9.60;8.87;;;3.00;99.90;;;;;;5072338;28;20186;-67
2022/12/09 01:12:47;;;;;;;9.10;8.40;;;3.00;99.90;;;;;;5072250;28;20627;-68
2022/12/09 01:15:12;;;;;;;7.77;7.20;;;2.90;99.90;;;;;;5071955;28;20174;-68
2022/12/09 01:17:39;;;;;;;10.93;9.83;;;3.00;99.90;;;;;;5072061;28;20213;-67
2022/12/09 01:20:07;;;;;;;10.00;9.03;;;3.00;99.90;;;;;;5071924;28;20185;-67
2022/12/09 01:22:33;;;;;;;10.00;9.10;;;3.00;99.90;;;;;;5071965;28;20517;-68
2022/12/09 01:24:59;;;;;;;9.80;9.10;;;3.00;99.90;;;;;;5072081;28;20182;-68
2022/12/09 01:27:24;;;;;;;10.83;9.40;;;3.00;99.90;;;;;;5071457;28;20189;-68
2022/12/09 01:29:50;;;;;;;10.63;9.70;;;3.00;99.90;;;;;;5071957;28;20532;-67
2022/12/09 01:32:16;;;;;;;10.27;9.47;;;3.00;99.90;;;;;;5053949;28;20263;-67
2022/12/09 01:34:41;;;;;;;11.63;9.13;;;2.90;99.90;;;;;;5072027;28;20178;-67
2022/12/09 01:37:07;;;;;;;9.53;8.63;;;2.90;99.90;;;;;;5071646;28;20789;-68
2022/12/09 01:39:32;;;;;;;9.13;8.43;;;3.00;99.90;;;;;;5072059;28;20284;-68
2022/12/09 01:42:02;;;;;;;10.27;9.43;;;3.00;99.90;;;;;;5071818;28;20192;-68
2022/12/09 01:44:30;;;;;;;10.50;9.47;;;2.90;99.90;;;;;;5071696;28;20200;-68
2022/12/09 01:46:58;;;;;;;10.43;9.63;;;3.00;99.90;;;;;;5071586;28;20218;-68
2022/12/09 01:49:41;;;;;;;10.93;9.93;;;3.00;99.90;;;;;;5053716;28;20198;-68
2022/12/09 01:52:12;;;;;;;10.93;9.53;;;3.00;99.90;;;;;;5071509;28;20177;-68
2022/12/09 01:54:40;;;;;;;9.10;8.40;;;3.00;99.90;;;;;;5071687;28;20181;-68
2022/12/09 01:57:06;;;;;;;10.53;9.57;;;3.00;99.90;;;;;;5071359;28;20194;-68
2022/12/09 01:59:32;;;;;;;9.93;8.93;;;3.00;99.90;;;;;;5053657;28;20289;-68
2022/12/09 02:01:59;;;;;;;9.63;8.93;;;3.00;99.90;;;;;;5071547;28;20178;-68
2022/12/09 02:04:28;;;;;;;9.73;8.80;;;3.00;99.90;;;;;;5071461;28;20177;-68
2022/12/09 02:06:55;;;;;;;10.70;9.80;;;2.90;99.90;;;;;;5071366;28;20193;-68
2022/12/09 02:09:21;;;;;;;9.77;8.97;;;2.90;99.90;;;;;;5071244;28;20194;-68
2022/12/09 02:12:06;;;;;;;9.73;9.00;;;2.90;99.90;;;;;;5070744;28;20185;-68
2022/12/09 02:14:50;;;;;;;10.93;9.93;;;2.90;99.90;;;;;;5071258;28;20206;-68
2022/12/09 02:17:24;;;;;;;11.13;8.97;;;2.90;99.90;;;;;;5071347;28;20209;-68
2022/12/09 02:22:25;;;;;;;11.63;10.17;;;2.90;99.90;;;;;;5069981;28;20201;-66
2022/12/09 02:25:11;;;;;;;9.03;8.33;;;2.90;99.90;;;;;;5071181;28;20170;-64
2022/12/09 02:27:43;;;;;;;8.63;7.83;;;2.90;99.90;;;;;;5071430;28;20349;-66
2022/12/09 02:30:21;;;;;;;10.43;9.43;;;2.90;99.90;;;;;;5051050;28;20543;-66
2022/12/09 02:33:08;;;;;;;10.67;9.30;;;2.90;99.90;;;;;;5051462;28;20213;-66
2022/12/09 02:35:59;;;;;;;9.50;8.63;;;2.90;99.90;;;;;;5051339;28;20201;-66
2022/12/09 02:38:29;;;;;;;10.23;8.70;;;2.90;99.90;;;;;;5051105;28;20286;-66
2022/12/09 02:40:59;;;;;;;12.87;9.13;;;2.90;99.90;;;;;;5051023;28;20163;-66
2022/12/09 02:43:29;;;;;;;9.60;8.87;;;2.90;99.90;;;;;;5051162;28;20178;-66
2022/12/09 02:45:57;;;;;;;12.40;9.73;;;2.90;99.90;;;;;;5051280;28;20254;-66
2022/12/09 02:48:35;;;;;;;11.70;8.60;;;2.80;99.90;;;;;;5051053;28;20668;-66
2022/12/09 02:51:08;;;;;;;10.27;9.03;;;2.80;99.90;;;;;;5050964;28;20179;-66
2022/12/09 02:53:36;;;;;;;11.27;9.90;;;2.80;99.90;;;;;;5051036;28;20463;-66
2022/12/09 02:56:04;;;;;;;10.73;9.73;;;2.80;99.90;;;;;;5051102;28;20175;-66
2022/12/09 02:58:30;;;;;;;9.47;8.23;;;2.70;99.90;;;;;;5050617;28;20624;-66
2022/12/09 03:00:56;;;;;;;9.63;9.00;;;2.70;99.90;;;;;;5050801;28;20258;-66
2022/12/09 03:03:23;;;;;;;9.13;8.27;;;2.70;99.90;;;;;;5050943;28;20236;-66
2022/12/09 03:05:57;;;;;;;10.37;9.27;;;2.60;99.90;;;;;;5051290;28;20647;-66
2022/12/09 03:08:43;;;;;;;9.73;8.87;;;2.60;99.90;;;;;;5050786;28;20202;-66
2022/12/09 03:11:15;;;;;;;9.87;8.43;;;2.60;99.90;;;;;;5050712;28;20675;-66
2022/12/09 03:13:53;;;;;;;11.57;8.97;;;2.50;99.90;;;;;;5051730;28;20174;-67
2022/12/09 03:16:24;;;;;;;9.50;8.70;;;2.50;99.90;;;;;;5052400;28;20186;-67
2022/12/09 03:18:57;;;;;;;10.70;9.70;;;2.50;99.90;;;;;;5052057;28;20210;-68
2022/12/09 03:21:25;;;;;;;10.43;9.53;;;2.40;99.90;;;;;;5052667;28;20236;-70
2022/12/09 03:23:53;;;;;;;10.80;9.73;;;2.40;99.90;;;;;;5054387;28;20220;-69
2022/12/09 03:26:22;;;;;;;9.87;8.97;;;2.40;99.90;;;;;;5056251;28;20220;-67
2022/12/09 03:28:50;;;;;;;11.37;9.90;;;2.30;99.90;;;;;;5055447;28;20198;-70
2022/12/09 03:31:20;;;;;;;9.90;9.10;;;2.30;99.90;;;;;;5056175;28;20178;-70
2022/12/09 03:33:51;;;;;;;10.03;9.07;;;2.30;99.90;;;;;;5054504;28;20206;-68
2022/12/09 03:36:19;;;;;;;10.30;9.40;;;2.30;99.90;;;;;;5055997;28;20183;-67
2022/12/09 03:38:47;;;;;;;13.97;9.67;;;2.30;99.90;;;;;;5055538;28;20203;-68
2022/12/09 03:41:23;;;;;;;10.33;9.47;;;2.30;99.90;;;;;;5055878;28;20572;-69
2022/12/09 03:43:57;;;;;;;10.53;9.57;;;2.30;99.90;;;;;;5054796;28;20627;-68
2022/12/09 03:46:23;;;;;;;10.60;9.60;;;2.30;99.90;;;;;;5056300;28;20643;-71
2022/12/09 03:48:49;;;;;;;9.57;8.80;;;2.30;99.90;;;;;;5056023;28;20629;-68
2022/12/09 03:51:20;;;;;;;10.40;9.40;;;2.30;99.90;;;;;;5056151;28;20257;-68
2022/12/09 03:54:02;;;;;;;11.10;10.13;;;2.30;99.90;;;;;;5056289;28;20175;-68
2022/12/09 03:56:37;;;;;;;10.93;9.93;;;2.40;99.90;;;;;;5056272;28;20564;-67
2022/12/09 03:59:08;;;;;;;10.83;9.90;;;2.40;99.90;;;;;;5056013;28;20206;-70
2022/12/09 04:01:33;;;;;;;9.97;9.17;;;2.40;99.90;;;;;;5056563;28;20185;-67
2022/12/09 04:03:59;;;;;;;9.60;8.80;;;2.50;99.90;;;;;;5055576;28;20179;-69
2022/12/09 04:06:25;;;;;;;10.70;9.60;;;2.50;99.90;;;;;;5058349;28;20220;-71
2022/12/09 04:08:50;;;;;;;9.40;8.73;;;2.50;99.90;;;;;;5055394;28;20207;-68
2022/12/09 04:11:16;;;;;;;9.70;8.87;;;2.50;99.90;;;;;;5055638;28;20175;-70
2022/12/09 04:13:41;;;;;;;13.37;10.30;;;2.50;99.90;;;;;;5055517;28;20182;-70
2022/12/09 04:16:08;;;;;;;10.10;9.23;;;2.60;99.90;;;;;;5055201;28;20181;-69
2022/12/09 04:18:34;;;;;;;14.60;10.57;;;2.50;99.90;;;;;;5054921;28;20269;-68
2022/12/09 04:20:59;;;;;;;13.67;8.20;;;2.50;99.90;;;;;;5055313;28;20556;-69
2022/12/09 04:23:25;;;;;;;9.93;9.07;;;2.50;99.90;;;;;;5055802;28;20538;-68
2022/12/09 04:25:51;;;;;;;12.57;9.73;;;2.50;99.90;;;;;;5060015;28;20175;-69
2022/12/09 04:28:16;;;;;;;10.10;9.13;;;2.50;99.90;;;;;;5061678;28;20255;-69
2022/12/09 04:30:45;;;;;;;13.43;9.90;;;2.60;99.90;;;;;;5061259;28;20225;-71
2022/12/09 04:33:11;;;;;;;10.30;9.50;;;2.60;99.90;;;;;;5061753;28;20546;-71
2022/12/09 04:35:37;;;;;;;10.63;9.43;;;2.60;99.90;;;;;;5059971;28;20190;-70
2022/12/09 04:38:03;;;;;;;11.20;10.00;;;2.60;99.90;;;;;;5060747;28;20275;-69
2022/12/09 04:40:28;;;;;;;10.67;9.63;;;2.70;99.90;;;;;;5059748;28;20542;-67
2022/12/09 04:42:54;;;;;;;9.53;8.73;;;2.70;99.90;;;;;;5060342;28;20182;-69
2022/12/09 04:45:20;;;;;;;9.90;8.93;;;2.80;99.90;;;;;;5060812;28;20228;-70
2022/12/09 04:47:45;;;;;;;11.27;10.17;;;2.80;99.90;;;;;;5060279;28;20167;-67
2022/12/09 04:50:11;;;;;;;15.17;10.90;;;2.80;99.90;;;;;;5058166;28;20200;-67
2022/12/09 04:52:37;;;;;;;12.43;10.03;;;2.80;99.90;;;;;;5058748;28;20167;-67
2022/12/09 04:55:03;;;;;;;11.50;10.50;;;2.80;99.90;;;;;;5054999;28;20228;-65
2022/12/09 04:57:28;;;;;;;11.63;10.63;;;2.90;99.90;;;;;;5053024;28;20543;-65
2022/12/09 04:59:54;;;;;;;12.30;11.17;;;2.90;99.90;;;;;;5052183;28;20561;-65
2022/12/09 05:02:20;;;;;;;11.93;10.80;;;2.90;99.90;;;;;;5052643;28;20167;-65
2022/12/09 05:04:46;;;;;;;12.03;10.00;;;2.90;99.90;;;;;;5052534;28;20516;-65
2022/12/09 05:07:12;;;;;;;15.00;11.03;;;2.90;99.90;;;;;;5051020;28;20179;-65
2022/12/09 05:09:38;;;;;;;13.33;10.80;;;3.00;99.90;;;;;;5052197;28;20699;-65
2022/12/09 05:12:04;;;;;;;11.67;10.57;;;3.00;99.90;;;;;;5052269;28;20222;-65
2022/12/09 05:14:29;;;;;;;12.40;10.63;;;3.10;99.90;;;;;;5050836;28;20662;-65
2022/12/09 05:16:55;;;;;;;11.07;10.20;;;3.00;99.90;;;;;;5052189;28;20174;-65
2022/12/09 05:19:20;;;;;;;11.27;10.23;;;3.00;99.90;;;;;;5051978;28;20265;-65
2022/12/09 05:21:46;;;;;;;11.27;10.20;;;3.00;99.90;;;;;;5052159;28;20195;-65
2022/12/09 05:24:12;;;;;;;12.07;10.73;;;3.00;99.90;;;;;;5052001;28;20183;-65
2022/12/09 05:26:38;;;;;;;9.90;9.23;;;2.90;99.90;;;;;;5051182;28;20256;-65
2022/12/09 05:29:04;;;;;;;10.77;9.07;;;2.90;99.90;;;;;;5051858;28;20571;-65
2022/12/09 05:31:29;;;;;;;12.97;10.10;;;2.90;99.90;;;;;;5052106;28;20178;-65
2022/12/09 05:33:55;;;;;;;12.80;8.50;;;2.80;99.90;;;;;;5051980;28;20220;-65
2022/12/09 05:36:23;;;;;;;10.30;9.27;;;2.80;99.90;;;;;;5051891;28;20251;-65
2022/12/09 05:38:49;;;;;;;10.43;9.37;;;2.80;99.90;;;;;;5051721;28;20207;-65
2022/12/09 05:41:16;;;;;;;10.47;9.43;;;2.70;99.90;;;;;;5051489;28;20281;-65
2022/12/09 05:43:42;;;;;;;9.47;8.73;;;2.70;99.90;;;;;;5051862;28;20564;-65
2022/12/09 05:46:08;;;;;;;11.13;8.97;;;2.70;99.90;;;;;;5050991;28;20175;-65
2022/12/09 05:48:35;;;;;;;11.10;9.93;;;2.70;99.90;;;;;;5051779;28;20198;-65
2022/12/09 05:51:07;;;;;;;10.30;9.37;;;2.60;99.90;;;;;;5051322;28;20655;-65
2022/12/09 05:53:33;;;;;;;11.53;10.53;;;2.60;99.90;;;;;;5051816;28;20216;-65
2022/12/09 05:55:59;;;;;;;10.97;9.77;;;2.60;99.90;;;;;;5051443;28;20186;-65
2022/12/09 05:58:25;;;;;;;10.07;9.17;;;2.60;99.90;;;;;;5051567;28;20207;-65
2022/12/09 06:00:51;;;;;;;14.77;10.80;;;2.50;99.90;;;;;;5051418;28;20689;-65
2022/12/09 06:03:16;;;;;;;11.43;10.37;;;2.50;99.90;;;;;;5051649;28;20178;-65
2022/12/09 06:05:42;;;;;;;11.37;10.33;;;2.50;99.90;;;;;;5051355;28;20186;-65
2022/12/09 06:08:08;;;;;;;11.60;10.67;;;2.40;99.90;;;;;;5051507;28;20200;-65
2022/12/09 06:10:37;;;;;;;13.50;11.07;;;2.40;99.90;;;;;;5051338;28;20183;-65
2022/12/09 06:13:02;;;;;;;10.83;9.83;;;2.30;99.90;;;;;;5051278;28;20170;-65
2022/12/09 06:15:28;;;;;;;11.30;10.20;;;2.20;99.90;;;;;;5049985;28;20183;-64
2022/12/09 06:17:53;;;;;;;10.27;9.27;;;2.10;99.90;;;;;;5051289;28;20218;-65
2022/12/09 06:20:19;;;;;;;10.60;9.70;;;2.00;99.90;;;;;;5050698;28;20274;-65
2022/12/09 06:22:44;;;;;;;11.50;10.50;;;1.80;99.90;;;;;;5051394;28;20542;-65
2022/12/09 06:25:10;;;;;;;10.90;10.10;;;1.70;99.90;;;;;;5049997;28;20186;-65
2022/12/09 06:27:36;;;;;;;14.47;12.90;;;1.60;99.90;;;;;;5051440;28;20171;-65
2022/12/09 06:30:02;;;;;;;13.03;10.40;;;1.50;99.90;;;;;;5050826;28;20538;-65
2022/12/09 06:32:29;;;;;;;10.60;9.87;;;1.30;99.90;;;;;;5050262;28;20525;-65
2022/12/09 06:34:54;;;;;;;12.43;11.37;;;1.10;99.90;;;;;;5050424;28;20709;-65
2022/12/09 06:37:20;;;;;;;23.90;19.67;;;0.90;99.90;;;;;;5051243;28;20238;-65
2022/12/09 06:39:46;;;;;;;17.37;15.57;;;0.80;99.90;;;;;;5050821;28;20273;-64
2022/12/09 06:42:11;;;;;;;13.20;12.20;;;0.70;99.90;;;;;;5051182;28;20623;-64
2022/12/09 06:44:38;;;;;;;11.40;10.37;;;0.60;99.90;;;;;;5051058;28;20174;-64
2022/12/09 06:47:05;;;;;;;11.97;11.00;;;0.50;99.90;;;;;;5029794;28;20179;-64
2022/12/09 06:49:31;;;;;;;10.10;9.17;;;0.40;99.90;;;;;;5031128;28;20207;-64
2022/12/09 06:51:56;;;;;;;10.87;10.13;;;0.30;99.90;;;;;;5050004;28;20179;-65
2022/12/09 06:54:22;;;;;;;10.47;9.50;;;0.20;99.90;;;;;;5051274;28;20174;-64
2022/12/09 06:56:47;;;;;;;10.10;9.20;;;0.10;99.90;;;;;;5051255;28;20185;-65
2022/12/09 06:59:13;;;;;;;10.77;9.93;;;0.00;99.90;;;;;;5054475;28;20556;-65
2022/12/09 07:01:38;;;;;;;9.63;8.73;;;-0.10;99.90;;;;;;5054627;28;20182;-65
2022/12/09 07:04:05;;;;;;;9.63;8.93;;;-0.20;99.90;;;;;;5053439;28;20701;-67
2022/12/09 07:06:36;;;;;;;13.33;10.43;;;-0.20;99.90;;;;;;5049950;28;20175;-65
2022/12/09 07:09:12;;;;;;;11.10;10.03;;;-0.30;99.90;;;;;;5035005;28;20196;-65
2022/12/09 07:11:39;;;;;;;13.60;11.23;;;-0.20;99.90;;;;;;5048529;28;20178;-64
2022/12/09 07:14:05;;;;;;;12.93;11.70;;;-0.30;99.90;;;;;;5051858;28;20713;-65
2022/12/09 07:16:30;;;;;;;10.77;9.47;;;-0.30;99.90;;;;;;5053930;28;20190;-65
2022/12/09 07:18:56;;;;;;;11.13;10.23;;;-0.30;99.90;;;;;;5054271;28;20577;-65
2022/12/09 07:21:23;;;;;;;11.40;10.13;;;-0.30;99.90;;;;;;5052495;28;20194;-65
2022/12/09 07:23:49;;;;;;;11.67;10.50;;;-0.40;99.90;;;;;;5053442;28;20258;-65
2022/12/09 07:26:15;;;;;;;10.60;9.63;;;-0.40;99.90;;;;;;5052642;28;20636;-65
2022/12/09 07:28:41;;;;;;;13.30;10.20;;;-0.50;99.90;;;;;;5054189;28;20198;-67
2022/12/09 07:31:18;;;;;;;11.23;10.33;;;-0.50;99.90;;;;;;5052342;28;20237;-65
2022/12/09 07:33:43;;;;;;;10.30;9.50;;;-0.40;99.90;;;;;;5053660;28;20186;-65
2022/12/09 07:36:09;;;;;;;10.40;9.60;;;-0.40;99.90;;;;;;5053784;28;20643;-65
2022/12/09 07:38:34;;;;;;;12.77;11.60;;;-0.30;99.90;;;;;;5052933;28;20210;-67
2022/12/09 07:41:05;;;;;;;14.17;10.67;;;-0.20;99.90;;;;;;5053401;28;20246;-65
2022/12/09 07:43:34;;;;;;;13.07;9.97;;;-0.10;99.90;;;;;;5053715;28;20185;-65
2022/12/09 07:46:06;;;;;;;9.90;8.93;;;0.10;99.90;;;;;;5053599;28;20186;-65
2022/12/09 07:48:32;;;;;;;11.07;9.97;;;0.30;99.90;;;;;;5053981;28;20621;-65
2022/12/09 07:51:02;;;;;;;11.27;9.80;;;0.50;99.90;;;;;;5053216;28;20206;-65
2022/12/09 07:53:29;;;;;;;10.87;9.97;;;0.70;99.90;;;;;;5051386;28;20179;-65
2022/12/09 07:55:55;;;;;;;15.07;12.63;;;0.80;99.90;;;;;;5046716;28;20236;-65
2022/12/09 07:58:20;;;;;;;10.77;10.03;;;0.90;99.90;;;;;;5053655;28;20293;-65
2022/12/09 08:00:46;;;;;;;11.40;10.40;;;0.90;99.90;;;;;;5053162;28;20266;-65
2022/12/09 08:03:12;;;;;;;11.53;10.63;;;0.90;99.90;;;;;;5053536;28;20249;-65
2022/12/09 08:05:52;;;;;;;11.53;10.33;;;0.80;99.90;;;;;;5053538;28;20182;-65
2022/12/09 08:08:18;;;;;;;11.73;10.63;;;0.80;99.90;;;;;;5053211;28;20289;-65
2022/12/09 08:10:45;;;;;;;10.97;10.03;;;0.70;99.90;;;;;;5050842;28;20261;-65
2022/12/09 08:13:11;;;;;;;12.27;10.73;;;0.70;99.90;;;;;;5053363;28;20595;-65
2022/12/09 08:15:37;;;;;;;13.03;12.10;;;0.60;99.90;;;;;;5053103;28;20187;-65
2022/12/09 08:18:03;;;;;;;12.37;11.13;;;0.60;99.90;;;;;;5053171;28;20210;-65
2022/12/09 08:20:29;;;;;;;14.00;12.63;;;0.60;99.90;;;;;;5078795;22;20234;-67
2022/12/09 08:22:55;;;;;;;14.70;12.17;;;0.60;99.90;;;;;;5072913;28;20178;-67
2022/12/09 08:25:21;;;;;;;14.70;13.20;;;0.60;99.90;;;;;;5072344;28;20536;-67
2022/12/09 08:27:46;;;;;;;12.63;11.53;;;0.70;99.90;;;;;;5071253;28;20189;-67
2022/12/09 08:30:12;;;;;;;10.07;9.13;;;0.60;99.90;;;;;;5070491;28;20178;-67
2022/12/09 08:32:37;;;;;;;12.57;11.47;;;0.60;99.90;;;;;;5071158;28;20178;-67
2022/12/09 08:35:03;;;;;;;12.80;11.43;;;0.60;99.90;;;;;;5071342;28;20217;-67
2022/12/09 08:37:29;;;;;;;11.63;10.63;;;0.60;99.90;;;;;;5072284;28;20400;-67
2022/12/09 08:39:55;;;;;;;10.63;9.77;;;0.50;99.90;;;;;;5071547;28;20611;-67
2022/12/09 08:42:20;;;;;;;17.90;10.83;;;0.40;99.90;;;;;;5069155;28;20204;-67
2022/12/09 08:44:46;;;;;;;11.97;10.00;;;0.50;99.90;;;;;;5071651;28;20657;-67
2022/12/09 08:47:11;;;;;;;12.17;10.87;;;0.50;99.90;;;;;;5070516;28;20185;-67
2022/12/09 08:49:37;;;;;;;12.07;11.00;;;0.40;99.90;;;;;;5072137;28;20257;-67
2022/12/09 08:52:03;;;;;;;13.00;11.70;;;0.40;99.90;;;;;;5070182;28;20234;-67
2022/12/09 08:54:29;;;;;;;15.07;10.80;;;0.50;99.90;;;;;;5070616;28;20174;-67
2022/12/09 08:56:55;;;;;;;17.93;10.10;;;0.40;99.90;;;;;;5070207;28;20257;-67
2022/12/09 08:59:21;;;;;;;12.77;11.10;;;0.50;99.90;;;;;;5070163;28;20224;-67
2022/12/09 09:01:47;;;;;;;11.50;10.30;;;0.50;99.90;;;;;;5069393;28;20201;-67
2022/12/09 09:04:16;;;;;;;13.07;11.70;;;0.50;99.90;;;;;;5070087;28;20278;-67
2022/12/09 09:06:44;;;;;;;13.70;11.43;;;0.60;99.90;;;;;;5070107;28;20677;-67
2022/12/09 09:09:12;;;;;;;14.77;13.37;;;0.70;99.90;;;;;;5071625;28;20261;-67
2022/12/09 09:11:39;;;;;;;13.57;12.27;;;0.80;99.90;;;;;;5070470;28;20201;-67
2022/12/09 09:14:06;;;;;;;14.20;12.80;;;0.90;99.90;;;;;;5070664;28;20704;-67
2022/12/09 09:16:33;;;;;;;13.67;12.27;;;0.90;99.90;;;;;;5071854;28;20182;-68
2022/12/09 09:19:00;;;;;;;12.97;11.77;;;1.10;99.90;;;;;;5070313;28;20631;-67
2022/12/09 09:21:26;;;;;;;12.90;11.67;;;1.20;99.90;;;;;;5068957;28;20289;-67
2022/12/09 09:23:52;;;;;;;13.40;12.00;;;1.40;99.90;;;;;;5070476;28;20264;-67
2022/12/09 09:26:24;;;;;;;18.03;14.03;;;1.50;99.90;;;;;;5071234;28;20170;-67
2022/12/09 09:28:51;;;;;;;21.93;15.23;;;1.60;99.90;;;;;;5070473;28;20235;-67
2022/12/09 09:31:19;;;;;;;16.27;12.57;;;1.70;99.90;;;;;;5069693;28;20293;-67
2022/12/09 09:33:45;;;;;;;21.90;13.63;;;1.90;99.90;;;;;;5070626;28;20181;-67
2022/12/09 09:36:19;;;;;;;21.53;14.97;;;2.00;99.90;;;;;;5070073;28;20182;-67
2022/12/09 09:38:45;;;;;;;17.70;13.53;;;2.20;99.90;;;;;;5070516;28;20206;-67
2022/12/09 09:41:55;;;;;;;16.10;13.67;;;2.40;99.90;;;;;;5062538;28;20865;-67
2022/12/09 09:44:38;;;;;;;21.77;15.27;;;2.60;99.90;;;;;;5050119;28;20171;-68
2022/12/09 09:47:16;;;;;;;15.00;11.07;;;2.70;99.90;;;;;;5065603;28;20177;-67
2022/12/09 09:49:57;;;;;;;16.47;13.60;;;2.70;99.90;;;;;;5069981;28;20651;-67
2022/12/09 09:52:26;;;;;;;14.43;12.30;;;2.60;99.90;;;;;;5069770;28;20201;-67
2022/12/09 09:54:52;;;;;;;12.87;11.57;;;2.60;99.90;;;;;;5071447;28;20170;-67
2022/12/09 09:57:44;;;;;;;16.90;12.47;;;2.60;99.90;;;;;;5070917;28;20201;-67
2022/12/09 10:00:13;;;;;;;13.53;12.20;;;2.60;99.90;;;;;;5069665;28;20232;-67
2022/12/09 10:02:50;;;;;;;13.10;11.80;;;2.70;99.90;;;;;;5071463;28;20678;-67
2022/12/09 10:05:33;;;;;;;15.23;11.37;;;2.80;99.90;;;;;;5069548;28;20200;-67
2022/12/09 10:08:27;;;;;;;12.93;11.53;;;2.90;99.90;;;;;;5071497;28;20631;-67
2022/12/09 10:11:15;;;;;;;14.10;12.87;;;3.00;99.90;;;;;;5042291;28;20260;-67
2022/12/09 10:13:53;;;;;;;14.13;12.70;;;3.10;99.90;;;;;;5054506;28;20171;-67
2022/12/09 10:16:46;;;;;;;15.33;13.70;;;3.30;99.90;;;;;;5071294;28;20214;-67
2022/12/09 10:19:24;;;;;;;15.00;13.40;;;3.40;99.90;;;;;;5068736;28;20212;-67
2022/12/09 10:21:51;;;;;;;14.17;12.80;;;3.50;99.90;;;;;;5069720;28;20384;-67
2022/12/09 10:24:26;;;;;;;14.17;12.57;;;3.60;99.90;;;;;;5071535;28;20249;-67
2022/12/09 10:26:56;;;;;;;14.83;12.43;;;3.70;99.90;;;;;;5071291;28;20199;-67
2022/12/09 10:29:38;;;;;;;14.50;13.10;;;3.80;99.90;;;;;;5069742;28;20178;-67
2022/12/09 10:32:08;;;;;;;13.87;12.53;;;3.90;99.90;;;;;;5072525;28;20198;-67
2022/12/09 10:34:33;;;;;;;17.50;12.70;;;3.90;99.90;;;;;;5073304;28;20174;-66
2022/12/09 10:36:59;;;;;;;15.10;13.43;;;3.90;99.90;;;;;;5073747;28;20170;-66
2022/12/09 10:39:24;;;;;;;13.10;11.80;;;3.80;99.90;;;;;;5075063;28;20170;-67
2022/12/09 10:44:40;;;;;;;17.07;12.63;;;3.80;99.90;;;;;;5075501;28;20232;-66
2022/12/09 10:47:18;;;;;;;12.87;11.30;;;3.90;99.90;;;;;;5074978;28;20170;-67
2022/12/09 10:49:51;;;;;;;16.53;13.90;;;3.90;99.90;;;;;;5074756;28;20544;-66
2022/12/09 10:52:22;;;;;;;17.13;12.63;;;3.90;99.90;;;;;;5073536;28;20202;-67
2022/12/09 10:54:48;;;;;;;13.73;12.40;;;3.90;99.90;;;;;;5073703;28;20232;-67
2022/12/09 10:57:13;;;;;;;14.63;12.97;;;4.00;99.90;;;;;;5073296;28;20174;-67
2022/12/09 10:59:41;;;;;;;16.17;13.60;;;4.00;99.90;;;;;;5073262;28;20170;-66
2022/12/09 11:02:06;;;;;;;16.87;12.30;;;4.10;99.90;;;;;;5073326;28;20226;-67
2022/12/09 11:04:34;;;;;;;14.73;13.10;;;4.10;99.90;;;;;;5073480;28;20223;-67
2022/12/09 11:07:11;;;;;;;13.47;12.07;;;4.10;99.90;;;;;;5073129;28;20197;-67
2022/12/09 11:09:43;;;;;;;16.83;13.77;;;4.10;99.90;;;;;;5072993;28;20174;-67
2022/12/09 11:12:27;;;;;;;15.10;13.60;;;4.00;99.90;;;;;;5074524;28;20553;-67
2022/12/09 11:14:57;;;;;;;13.63;12.37;;;4.00;99.90;;;;;;5071487;28;20303;-67
2022/12/09 11:17:29;;;;;;;14.50;12.93;;;4.10;99.90;;;;;;5061252;28;20536;-67
2022/12/09 11:20:07;;;;;;;13.90;12.47;;;4.10;99.90;;;;;;5052737;28;20171;-67
2022/12/09 11:22:39;;;;;;;14.07;12.57;;;4.30;99.90;;;;;;5052772;28;20268;-67
2022/12/09 11:25:21;;;;;;;18.60;13.13;;;4.30;99.90;;;;;;5069082;28;20182;-68
2022/12/09 11:27:54;;;;;;;14.53;12.67;;;4.40;99.90;;;;;;5054241;28;20183;-67
2022/12/09 11:30:39;;;;;;;14.33;10.90;;;4.30;99.90;;;;;;5063483;28;20227;-67
2022/12/09 11:33:22;;;;;;;13.90;12.40;;;4.40;99.90;;;;;;5073848;28;20547;-67
2022/12/09 11:35:48;;;;;;;13.70;12.30;;;4.50;99.90;;;;;;5072125;28;20276;-67
2022/12/09 11:38:34;;;;;;;13.83;12.30;;;4.60;99.90;;;;;;5073768;28;20917;-67
2022/12/09 11:41:09;;;;;;;17.70;12.70;;;4.80;99.90;;;;;;5073395;28;20825;-67
2022/12/09 11:43:46;;;;;;;15.90;12.40;;;4.90;99.90;;;;;;5071197;28;20180;-67
2022/12/09 11:46:11;;;;;;;18.00;12.23;;;5.00;99.90;;;;;;5074050;28;20173;-67
2022/12/09 11:48:38;;;;;;;15.60;11.90;;;5.10;99.90;;;;;;5073680;28;20222;-67
2022/12/09 11:51:05;;;;;;;14.33;12.77;;;5.20;99.90;;;;;;5073424;28;20655;-68
2022/12/09 11:53:39;;;;;;;19.77;12.80;;;5.40;99.90;;;;;;5072210;28;20194;-68
2022/12/09 11:56:19;;;;;;;15.53;13.27;;;5.60;99.90;;;;;;5073638;28;20227;-68
2022/12/09 11:59:10;;;;;;;17.07;12.53;;;5.70;99.90;;;;;;5073398;28;20259;-68
2022/12/09 12:01:51;;;;;;;16.33;12.07;;;5.80;99.90;;;;;;5073213;28;20190;-68
2022/12/09 12:04:29;;;;;;;16.10;12.67;;;5.80;99.90;;;;;;5063650;28;20266;-68
2022/12/09 12:07:05;;;;;;;13.83;12.50;;;5.80;99.90;;;;;;5051999;28;20181;-68
2022/12/09 12:09:40;;;;;;;17.23;12.47;;;5.80;81.60;;;;;;5065067;28;20642;-68
2022/12/09 12:12:42;;;;;;;19.63;12.87;;;5.70;77.00;;;;;;5073216;28;20642;-68
2022/12/09 12:15:24;;;;;;;13.77;12.07;;;5.70;99.90;;;;;;5069726;28;20186;-68
2022/12/09 12:17:54;;;;;;;16.90;12.40;;;5.70;75.20;;;;;;5070924;28;20198;-68
2022/12/09 12:20:34;;;;;;;15.13;12.03;;;5.60;91.40;;;;;;5058872;28;20175;-67
2022/12/09 12:23:25;;;;;;;18.23;13.47;;;5.50;91.10;;;;;;5064909;28;20186;-68
2022/12/09 12:26:05;;;;;;;20.23;13.60;;;5.60;99.90;;;;;;5071489;28;20180;-68
2022/12/09 12:28:47;;;;;;;17.87;12.03;;;5.60;99.90;;;;;;5073020;28;20185;-68
2022/12/09 12:31:31;;;;;;;16.43;12.20;;;5.60;76.20;;;;;;5070856;28;20312;-68
2022/12/09 12:34:16;;;;;;;18.57;12.10;;;5.60;53.80;;;;;;5071645;28;20189;-67
2022/12/09 12:37:13;;;;;;;16.20;12.73;;;5.40;68.40;;;;;;5062055;28;20186;-68
2022/12/09 12:40:07;;;;;;;16.37;13.10;;;5.30;92.30;;;;;;5062577;28;20233;-68
2022/12/09 12:42:38;;;;;;;15.67;13.13;;;5.20;86.90;;;;;;5051349;28;20194;-68
2022/12/09 12:48:17;;;;;;;14.80;11.60;;;4.90;99.90;;;;;;5072536;28;20196;-68
2022/12/09 12:50:51;;;;;;;23.37;13.57;;;4.80;99.90;;;;;;5070703;28;20697;-68
2022/12/09 12:53:35;;;;;;;17.60;12.10;;;4.70;99.90;;;;;;5070943;28;20585;-69
2022/12/09 12:56:06;;;;;;;15.17;12.23;;;4.70;99.90;;;;;;5067597;28;20662;-69
2022/12/09 12:58:46;;;;;;;21.37;14.20;;;4.80;99.90;;;;;;5070960;28;20209;-69
2022/12/09 13:01:28;;;;;;;21.13;13.90;;;5.00;99.90;;;;;;5070190;28;20210;-69
2022/12/09 13:04:13;;;;;;;15.77;13.37;;;5.10;99.90;;;;;;5071913;28;20174;-69